Time;durP1;ratioP1;P1;durP2;ratioP2;P2;SDS_P1;SDS_P2;PMS_P1;PMS_P2;Temp;Humidity;BMP_temperature;BMP_pressure;BME280_temperature;BME280_humidity;BME280_pressure;Samples;Min_cycle;Max_cycle;Signal;HPM_P1;HPM_P2
2021/10/21 00:00:26;;;;;;;3.58;1.20;;;19.60;97.20;;;;;;5050716;28;20017;-88
2021/10/21 00:02:51;;;;;;;4.32;1.20;;;19.60;97.10;;;;;;5048801;28;20391;-90
2021/10/21 00:05:17;;;;;;;3.63;1.38;;;19.60;97.10;;;;;;5051066;28;20481;-89
2021/10/21 00:07:43;;;;;;;3.33;0.98;;;19.60;97.00;;;;;;5050744;28;20697;-90
2021/10/21 00:10:10;;;;;;;3.30;1.23;;;19.50;96.90;;;;;;5050869;28;20539;-90
2021/10/21 00:12:36;;;;;;;2.95;1.10;;;19.50;96.80;;;;;;5049343;28;20119;-89
2021/10/21 00:15:02;;;;;;;2.95;1.10;;;19.50;96.80;;;;;;5050204;28;20021;-90
2021/10/21 00:17:29;;;;;;;6.20;1.27;;;19.50;96.70;;;;;;5048484;28;20392;-88
2021/10/21 00:19:55;;;;;;;3.17;1.05;;;19.50;96.60;;;;;;5050338;28;20028;-88
2021/10/21 00:22:21;;;;;;;3.95;1.00;;;19.50;96.50;;;;;;5048642;28;20029;-88
2021/10/21 00:24:46;;;;;;;3.95;1.02;;;19.40;96.40;;;;;;5050181;28;20017;-88
2021/10/21 00:27:12;;;;;;;5.43;1.40;;;19.40;96.30;;;;;;5048971;28;20025;-88
2021/10/21 00:29:38;;;;;;;6.65;1.00;;;19.40;96.20;;;;;;5048245;28;20027;-86
2021/10/21 00:32:04;;;;;;;3.80;1.02;;;19.40;96.20;;;;;;5049665;28;20029;-87
2021/10/21 00:34:29;;;;;;;4.30;1.40;;;19.40;96.10;;;;;;5049169;28;20722;-87
2021/10/21 00:36:55;;;;;;;3.28;0.88;;;19.40;96.00;;;;;;5049944;28;20075;-88
2021/10/21 00:39:20;;;;;;;5.32;0.90;;;19.40;95.90;;;;;;5049778;28;20017;-89
2021/10/21 00:41:46;;;;;;;4.63;1.20;;;19.30;95.80;;;;;;5049310;28;20032;-91
2021/10/21 00:44:13;;;;;;;3.40;1.33;;;19.30;95.70;;;;;;5050102;28;20028;-89
2021/10/21 00:46:40;;;;;;;4.05;1.00;;;19.30;95.70;;;;;;5048480;28;20570;-91
2021/10/21 00:49:06;;;;;;;4.85;1.25;;;19.30;95.70;;;;;;5050209;28;20061;-89
2021/10/21 00:51:33;;;;;;;3.95;0.90;;;19.30;95.40;;;;;;5050013;28;20533;-92
2021/10/21 00:53:59;;;;;;;3.47;1.08;;;19.30;95.30;;;;;;5049867;28;20017;-91
2021/10/21 00:56:26;;;;;;;5.88;1.15;;;19.30;95.20;;;;;;5048186;28;20062;-89
2021/10/21 00:58:53;;;;;;;4.65;1.00;;;19.20;95.10;;;;;;5048816;28;20415;-89
2021/10/21 01:01:20;;;;;;;4.20;1.00;;;19.20;95.00;;;;;;5049710;28;20021;-87
2021/10/21 01:03:46;;;;;;;2.75;1.05;;;19.20;95.00;;;;;;5029975;28;20022;-88
2021/10/21 01:06:13;;;;;;;4.15;1.05;;;19.20;94.90;;;;;;5044221;28;20029;-88
2021/10/21 01:08:40;;;;;;;2.95;0.90;;;19.20;94.90;;;;;;5049365;28;20021;-88
2021/10/21 01:11:06;;;;;;;2.83;0.95;;;19.20;94.80;;;;;;5049520;28;20033;-89
2021/10/21 01:13:32;;;;;;;3.13;1.40;;;19.10;94.70;;;;;;5047984;28;20025;-88
2021/10/21 01:16:10;;;;;;;5.07;1.10;;;19.10;94.70;;;;;;5049088;28;20607;-89
2021/10/21 01:18:36;;;;;;;3.70;1.08;;;19.10;94.60;;;;;;5047496;28;20560;-89
2021/10/21 01:21:04;;;;;;;6.63;0.98;;;19.10;94.60;;;;;;5049588;28;20491;-89
2021/10/21 01:23:30;;;;;;;4.45;1.08;;;19.10;94.50;;;;;;5047801;28;20024;-88
2021/10/21 01:25:55;;;;;;;4.32;1.10;;;19.10;94.40;;;;;;5048737;28;20403;-89
2021/10/21 01:28:21;;;;;;;6.68;1.02;;;19.10;94.30;;;;;;5049342;28;20077;-88
2021/10/21 01:30:50;;;;;;;3.55;0.80;;;19.10;94.30;;;;;;5049500;28;20025;-87
2021/10/21 01:33:16;;;;;;;4.97;1.00;;;19.00;94.30;;;;;;5048843;28;20032;-89
2021/10/21 01:35:42;;;;;;;5.78;1.55;;;19.00;94.20;;;;;;5048647;28;20033;-90
2021/10/21 01:38:07;;;;;;;4.63;1.10;;;19.00;94.00;;;;;;5049067;28;20503;-91
2021/10/21 01:40:33;;;;;;;5.40;1.02;;;19.00;94.10;;;;;;5048108;28;20036;-89
2021/10/21 01:42:59;;;;;;;6.38;1.15;;;19.00;94.10;;;;;;5047415;28;20028;-88
2021/10/21 01:45:29;;;;;;;7.72;0.95;;;19.00;94.10;;;;;;5046904;28;20119;-89
2021/10/21 01:47:56;;;;;;;3.85;0.88;;;19.00;94.10;;;;;;5048322;28;20025;-88
2021/10/21 01:50:23;;;;;;;3.88;0.85;;;19.00;94.00;;;;;;5048751;28;20025;-87
2021/10/21 01:52:50;;;;;;;4.20;1.00;;;19.00;93.90;;;;;;5047625;28;20056;-86
2021/10/21 01:55:17;;;;;;;4.03;1.00;;;19.00;93.90;;;;;;5048617;28;20021;-87
2021/10/21 01:57:43;;;;;;;2.90;0.80;;;19.00;93.70;;;;;;5048551;28;20029;-88
2021/10/21 02:00:14;;;;;;;5.03;0.90;;;18.90;93.80;;;;;;5047419;28;20115;-86
2021/10/21 02:02:42;;;;;;;4.05;0.93;;;18.90;93.70;;;;;;5046024;28;20039;-87
2021/10/21 02:05:08;;;;;;;5.40;1.20;;;18.90;93.60;;;;;;5048245;28;20060;-88
2021/10/21 02:07:34;;;;;;;5.65;1.50;;;18.90;93.40;;;;;;5048338;28;20563;-87
2021/10/21 02:10:00;;;;;;;3.35;1.25;;;18.90;93.50;;;;;;5048615;28;20048;-88
2021/10/21 02:12:26;;;;;;;3.63;0.98;;;18.90;93.40;;;;;;5048217;28;20037;-88
2021/10/21 02:14:52;;;;;;;4.65;0.90;;;18.90;93.50;;;;;;5047766;28;20032;-87
2021/10/21 02:17:22;;;;;;;6.03;0.90;;;18.90;93.40;;;;;;5048072;28;20404;-88
2021/10/21 02:19:48;;;;;;;3.22;0.90;;;18.90;93.30;;;;;;5048803;28;20083;-88
2021/10/21 02:22:14;;;;;;;4.43;1.05;;;18.80;93.10;;;;;;5047304;28;20484;-87
2021/10/21 02:24:39;;;;;;;3.60;0.80;;;18.80;93.30;;;;;;5047795;28;20029;-88
2021/10/21 02:27:05;;;;;;;3.42;0.80;;;18.80;93.10;;;;;;5047141;28;20073;-89
2021/10/21 02:29:31;;;;;;;2.13;0.73;;;18.80;93.20;;;;;;5048194;28;20366;-88
2021/10/21 02:31:56;;;;;;;3.42;0.95;;;18.80;93.20;;;;;;5046698;28;20026;-89
2021/10/21 02:34:22;;;;;;;2.65;0.70;;;18.80;93.20;;;;;;5048040;28;20511;-88
2021/10/21 02:36:48;;;;;;;5.15;1.10;;;18.80;93.20;;;;;;5048450;28;20109;-89
2021/10/21 02:39:13;;;;;;;3.33;0.88;;;18.80;93.20;;;;;;5048202;28;20032;-88
2021/10/21 02:41:39;;;;;;;3.63;1.00;;;18.80;93.10;;;;;;5047931;28;20036;-90
2021/10/21 02:44:05;;;;;;;3.65;0.70;;;18.70;93.10;;;;;;5047842;28;20041;-89
2021/10/21 02:46:30;;;;;;;4.90;0.90;;;18.70;93.00;;;;;;5046285;28;20070;-89
2021/10/21 02:48:56;;;;;;;3.33;0.82;;;18.80;93.10;;;;;;5048282;28;20033;-89
2021/10/21 02:51:21;;;;;;;3.85;0.73;;;18.70;93.00;;;;;;5046563;28;20021;-88
2021/10/21 02:53:48;;;;;;;3.03;0.70;;;18.70;93.00;;;;;;5050467;28;20033;-88
2021/10/21 02:56:14;;;;;;;2.40;0.73;;;18.70;93.00;;;;;;5050626;28;20049;-90
2021/10/21 02:58:40;;;;;;;2.70;0.73;;;18.70;93.00;;;;;;5051727;28;20484;-90
2021/10/21 03:01:06;;;;;;;2.67;0.75;;;18.70;93.00;;;;;;5051826;28;20036;-91
2021/10/21 03:03:31;;;;;;;3.97;0.85;;;18.70;92.90;;;;;;5050070;28;20017;-89
2021/10/21 03:05:57;;;;;;;1.42;0.50;;;18.70;93.00;;;;;;5051008;28;20481;-89
2021/10/21 03:08:22;;;;;;;4.28;0.80;;;18.70;93.00;;;;;;5051550;28;20032;-90
2021/10/21 03:10:48;;;;;;;1.92;0.60;;;18.70;93.00;;;;;;5051861;28;20485;-90
2021/10/21 03:13:14;;;;;;;4.40;0.82;;;18.70;93.00;;;;;;5051938;28;20024;-89
2021/10/21 03:15:40;;;;;;;4.43;0.82;;;18.60;93.00;;;;;;5050846;28;20021;-90
2021/10/21 03:18:06;;;;;;;3.55;0.70;;;18.60;93.00;;;;;;5051242;28;20430;-90
2021/10/21 03:20:34;;;;;;;3.13;0.70;;;18.60;93.00;;;;;;5051378;28;20025;-86
2021/10/21 03:23:00;;;;;;;3.25;0.73;;;18.70;93.00;;;;;;5055345;27;20111;-90
2021/10/21 03:25:26;;;;;;;4.25;0.88;;;18.60;93.00;;;;;;5051976;28;20189;-92
2021/10/21 03:27:52;;;;;;;4.10;0.80;;;18.60;93.00;;;;;;5062734;27;20027;-90
2021/10/21 03:30:17;;;;;;;2.67;0.52;;;18.60;93.00;;;;;;5136852;27;20105;-92
2021/10/21 03:32:43;;;;;;;3.78;0.70;;;18.60;93.10;;;;;;5091709;27;20484;-91
2021/10/21 03:35:09;;;;;;;2.28;0.70;;;18.60;93.00;;;;;;5051884;28;20033;-91
2021/10/21 03:37:35;;;;;;;3.55;0.80;;;18.60;93.10;;;;;;5052430;28;20037;-90
2021/10/21 03:40:02;;;;;;;3.83;0.77;;;18.60;93.10;;;;;;5053506;28;20033;-92
2021/10/21 03:42:28;;;;;;;4.75;0.60;;;18.60;93.10;;;;;;5052054;28;20025;-90
2021/10/21 03:44:56;;;;;;;2.95;0.73;;;18.60;93.10;;;;;;5051159;28;20108;-92
2021/10/21 03:47:23;;;;;;;2.65;0.80;;;18.60;93.10;;;;;;5051083;28;20029;-92
2021/10/21 03:49:50;;;;;;;2.83;0.60;;;18.60;93.10;;;;;;5052409;28;20057;-91
2021/10/21 03:52:19;;;;;;;2.53;0.80;;;18.60;93.10;;;;;;5052942;28;20492;-90
2021/10/21 03:54:46;;;;;;;1.90;0.50;;;18.60;93.50;;;;;;5053661;28;20028;-88
2021/10/21 03:57:11;;;;;;;2.72;0.65;;;18.60;93.10;;;;;;5053949;28;20101;-90
2021/10/21 03:59:37;;;;;;;3.53;0.80;;;18.60;93.20;;;;;;5050880;28;20060;-90
2021/10/21 04:02:03;;;;;;;3.20;0.80;;;18.50;93.10;;;;;;5050554;28;20118;-89
2021/10/21 04:04:29;;;;;;;2.08;0.70;;;18.50;93.10;;;;;;5049741;28;20036;-92
2021/10/21 04:06:55;;;;;;;3.88;1.50;;;18.60;93.20;;;;;;5051122;28;20032;-90
2021/10/21 04:09:21;;;;;;;1.83;0.80;;;18.60;93.20;;;;;;5049952;28;20507;-90
2021/10/21 04:11:46;;;;;;;2.45;0.60;;;18.60;93.20;;;;;;5050555;28;20052;-90
2021/10/21 04:14:12;;;;;;;2.10;0.60;;;18.60;93.20;;;;;;5051739;28;20028;-90
2021/10/21 04:16:38;;;;;;;2.83;0.70;;;18.60;93.20;;;;;;5050290;28;20065;-89
2021/10/21 04:19:03;;;;;;;3.58;0.90;;;18.50;93.10;;;;;;5050284;28;20395;-89
2021/10/21 04:21:29;;;;;;;3.83;0.60;;;18.50;93.10;;;;;;5050357;28;20028;-87
2021/10/21 04:23:55;;;;;;;3.95;0.90;;;18.50;93.10;;;;;;5049926;28;20027;-90
2021/10/21 04:26:21;;;;;;;2.17;0.60;;;18.50;93.10;;;;;;5049013;28;20029;-90
2021/10/21 04:28:47;;;;;;;2.83;0.65;;;18.50;93.10;;;;;;5050776;28;20033;-89
2021/10/21 04:31:13;;;;;;;5.93;1.45;;;18.50;93.10;;;;;;5050262;28;20031;-89
2021/10/21 04:33:38;;;;;;;2.60;0.80;;;18.50;93.10;;;;;;5048251;28;20468;-89
2021/10/21 04:36:04;;;;;;;2.83;0.73;;;18.50;93.10;;;;;;5050427;28;20385;-91
2021/10/21 04:38:30;;;;;;;2.17;0.70;;;18.50;93.10;;;;;;5050411;28;20473;-92
2021/10/21 04:40:56;;;;;;;2.58;0.90;;;18.50;93.10;;;;;;5050564;28;20537;-91
2021/10/21 04:43:21;;;;;;;3.47;0.90;;;18.50;93.00;;;;;;5049762;28;20092;-90
2021/10/21 04:45:47;;;;;;;3.85;0.80;;;18.50;93.00;;;;;;5050374;28;20029;-90
2021/10/21 04:48:13;;;;;;;5.85;1.15;;;18.50;93.00;;;;;;5049996;28;20037;-91
2021/10/21 04:50:39;;;;;;;1.83;0.60;;;18.50;92.90;;;;;;5050060;28;20021;-91
2021/10/21 04:53:05;;;;;;;4.10;0.60;;;18.50;92.70;;;;;;5051049;28;20416;-91
2021/10/21 04:55:34;;;;;;;5.00;1.00;;;18.40;92.60;;;;;;5049804;28;20404;-91
2021/10/21 04:58:04;;;;;;;2.50;0.70;;;18.50;92.60;;;;;;5049960;28;20021;-91
2021/10/21 05:00:30;;;;;;;5.82;1.20;;;18.50;92.60;;;;;;5049476;28;20101;-91
2021/10/21 05:02:57;;;;;;;4.18;0.70;;;18.50;92.50;;;;;;5049801;28;20081;-89
2021/10/21 05:05:22;;;;;;;5.53;0.98;;;18.50;92.50;;;;;;5062083;27;20030;-89
2021/10/21 05:07:49;;;;;;;4.10;0.80;;;18.50;92.50;;;;;;5134492;27;20019;-88
2021/10/21 05:10:14;;;;;;;4.13;0.80;;;18.60;92.50;;;;;;5134494;27;20027;-90
2021/10/21 05:12:40;;;;;;;3.03;0.52;;;18.50;92.40;;;;;;5134031;27;20019;-86
2021/10/21 05:15:06;;;;;;;2.85;0.80;;;18.60;92.40;;;;;;5072670;27;20049;-88
2021/10/21 05:17:32;;;;;;;2.17;0.73;;;18.60;92.30;;;;;;5049638;28;20365;-90
2021/10/21 05:19:58;;;;;;;4.97;0.80;;;18.60;92.30;;;;;;5050204;28;20027;-91
2021/10/21 05:22:24;;;;;;;3.70;1.52;;;18.60;92.20;;;;;;5050258;28;20084;-91
2021/10/21 05:24:50;;;;;;;3.30;0.80;;;18.60;92.20;;;;;;5049422;28;20025;-90
2021/10/21 05:27:15;;;;;;;2.50;0.70;;;18.60;92.10;;;;;;5049299;28;20017;-86
2021/10/21 05:29:41;;;;;;;1.95;0.65;;;18.70;92.10;;;;;;5048904;28;20119;-89
2021/10/21 05:32:07;;;;;;;3.13;0.75;;;18.70;92.00;;;;;;5050814;28;20021;-89
2021/10/21 05:34:38;;;;;;;3.03;0.82;;;18.70;92.00;;;;;;5054149;28;20036;-87
2021/10/21 05:37:06;;;;;;;3.45;0.75;;;18.70;92.00;;;;;;5051180;28;20041;-88
2021/10/21 05:39:32;;;;;;;2.97;0.52;;;18.70;91.90;;;;;;5048331;28;20476;-92
2021/10/21 05:41:59;;;;;;;4.20;0.77;;;18.80;91.90;;;;;;5048412;28;20025;-88
2021/10/21 05:44:25;;;;;;;4.40;0.70;;;18.80;91.90;;;;;;5047341;28;20029;-91
2021/10/21 05:46:51;;;;;;;4.05;0.90;;;18.80;91.90;;;;;;5044613;28;20040;-89
2021/10/21 05:49:17;;;;;;;3.33;0.82;;;18.80;91.90;;;;;;5049631;28;20017;-88
2021/10/21 05:51:43;;;;;;;4.13;1.23;;;18.80;91.80;;;;;;5048841;28;20025;-85
2021/10/21 05:54:09;;;;;;;5.45;0.88;;;18.80;91.80;;;;;;5048836;28;20029;-84
2021/10/21 05:56:35;;;;;;;2.45;0.77;;;18.80;91.70;;;;;;5048385;28;20155;-86
2021/10/21 05:59:01;;;;;;;4.25;0.80;;;18.90;91.70;;;;;;5048595;28;20459;-84
2021/10/21 06:01:26;;;;;;;2.38;0.80;;;18.90;91.70;;;;;;5048729;28;20041;-84
2021/10/21 06:03:52;;;;;;;4.57;0.95;;;18.90;91.60;;;;;;5046935;28;20485;-87
2021/10/21 06:06:18;;;;;;;3.72;0.82;;;18.90;91.50;;;;;;5049038;28;20112;-85
2021/10/21 06:08:44;;;;;;;2.05;0.60;;;18.90;91.40;;;;;;5048313;28;20488;-87
2021/10/21 06:11:10;;;;;;;2.55;0.73;;;19.00;91.50;;;;;;5048491;28;20025;-86
2021/10/21 06:13:36;;;;;;;5.00;1.00;;;19.00;91.40;;;;;;5048340;28;20112;-86
2021/10/21 06:16:03;;;;;;;4.75;1.17;;;19.00;91.40;;;;;;5048251;28;20040;-85
2021/10/21 06:18:29;;;;;;;3.30;1.13;;;19.00;91.40;;;;;;5047888;28;20460;-86
2021/10/21 06:20:55;;;;;;;2.75;0.80;;;19.00;91.40;;;;;;5049497;28;20025;-89
2021/10/21 06:23:21;;;;;;;5.13;0.95;;;19.00;91.40;;;;;;5048068;28;20026;-88
2021/10/21 06:25:47;;;;;;;3.08;0.68;;;19.00;91.40;;;;;;5048218;28;20487;-87
2021/10/21 06:28:13;;;;;;;3.63;0.90;;;19.00;90.90;;;;;;5077462;27;20108;-89
2021/10/21 06:30:39;;;;;;;1.65;0.75;;;19.00;91.30;;;;;;5048580;28;20488;-88
2021/10/21 06:33:04;;;;;;;3.45;0.73;;;19.00;91.20;;;;;;5050540;28;20040;-88
2021/10/21 06:35:30;;;;;;;8.05;0.70;;;19.00;91.10;;;;;;5052406;28;20029;-91
2021/10/21 06:37:56;;;;;;;3.67;0.93;;;19.00;91.00;;;;;;5028767;28;20396;-92
2021/10/21 06:40:22;;;;;;;4.60;1.20;;;19.00;91.10;;;;;;5047130;28;20057;-87
2021/10/21 06:42:48;;;;;;;4.43;0.90;;;19.00;91.10;;;;;;5048656;28;20040;-88
2021/10/21 06:45:14;;;;;;;3.72;0.73;;;19.00;91.00;;;;;;5048232;28;20132;-87
2021/10/21 06:47:43;;;;;;;3.83;0.65;;;19.00;91.00;;;;;;5056143;28;20103;-84
2021/10/21 06:50:10;;;;;;;6.65;0.88;;;19.00;91.00;;;;;;5046919;28;20070;-86
2021/10/21 06:52:40;;;;;;;5.13;0.80;;;19.00;91.10;;;;;;5046577;28;20104;-84
2021/10/21 06:55:06;;;;;;;7.32;0.70;;;18.90;90.90;;;;;;5047770;28;20484;-89
2021/10/21 06:57:32;;;;;;;3.90;0.80;;;18.90;91.00;;;;;;5048437;28;20044;-89
2021/10/21 06:59:58;;;;;;;6.55;1.30;;;18.90;90.90;;;;;;5093760;28;20019;-88
2021/10/21 07:02:23;;;;;;;5.80;0.75;;;18.90;91.00;;;;;;5060434;28;20041;-88
2021/10/21 07:04:49;;;;;;;4.47;1.00;;;18.90;90.90;;;;;;5046683;28;20025;-87
2021/10/21 07:07:15;;;;;;;4.35;0.90;;;18.90;90.80;;;;;;5047153;28;20036;-90
2021/10/21 07:09:40;;;;;;;3.40;1.00;;;18.90;90.80;;;;;;5047362;28;20029;-89
2021/10/21 07:12:06;;;;;;;3.58;0.90;;;18.90;90.90;;;;;;5047743;28;20031;-87
2021/10/21 07:14:31;;;;;;;7.65;1.10;;;18.90;90.90;;;;;;5047587;28;20056;-89
2021/10/21 07:16:57;;;;;;;4.85;0.80;;;18.90;90.90;;;;;;5047765;28;20419;-89
2021/10/21 07:19:23;;;;;;;3.88;1.15;;;18.80;90.80;;;;;;5047669;28;20659;-90
2021/10/21 07:21:49;;;;;;;6.07;1.23;;;18.80;90.80;;;;;;5047771;28;20499;-82
2021/10/21 07:24:14;;;;;;;4.22;0.90;;;18.80;90.80;;;;;;5047718;28;20033;-90
2021/10/21 07:26:41;;;;;;;3.97;0.80;;;18.80;90.80;;;;;;5047461;28;20029;-90
2021/10/21 07:29:07;;;;;;;3.45;0.77;;;18.80;90.80;;;;;;5047612;28;20414;-89
2021/10/21 07:31:33;;;;;;;4.68;0.98;;;18.80;90.80;;;;;;5047484;28;20112;-86
2021/10/21 07:33:59;;;;;;;4.60;0.95;;;18.80;90.70;;;;;;5047641;28;20028;-85
2021/10/21 07:36:25;;;;;;;7.68;1.10;;;18.80;90.70;;;;;;5047342;28;20119;-86
2021/10/21 07:38:51;;;;;;;6.07;0.93;;;18.80;90.70;;;;;;5048528;28;20461;-87
2021/10/21 07:41:18;;;;;;;5.60;1.00;;;18.70;90.70;;;;;;5051197;28;20488;-88
2021/10/21 07:43:44;;;;;;;4.63;1.05;;;18.70;90.60;;;;;;5051498;28;20063;-84
2021/10/21 07:46:09;;;;;;;5.72;1.02;;;18.70;90.60;;;;;;5050800;28;20072;-88
2021/10/21 07:48:35;;;;;;;4.97;1.10;;;18.70;90.60;;;;;;5050665;28;20020;-88
2021/10/21 07:51:01;;;;;;;5.57;1.05;;;18.70;90.50;;;;;;5050844;28;20424;-87
2021/10/21 07:53:28;;;;;;;5.32;1.13;;;18.60;90.50;;;;;;5050482;28;20056;-88
2021/10/21 07:55:55;;;;;;;4.18;0.90;;;18.60;90.50;;;;;;5050717;28;20039;-88
2021/10/21 07:58:21;;;;;;;3.63;0.98;;;18.60;90.50;;;;;;5050689;28;20029;-89
2021/10/21 08:00:46;;;;;;;5.47;1.02;;;18.60;90.50;;;;;;5051024;28;20730;-87
2021/10/21 08:03:12;;;;;;;4.28;0.88;;;18.60;90.50;;;;;;5050697;28;20032;-86
2021/10/21 08:05:38;;;;;;;4.47;0.80;;;18.60;90.50;;;;;;5050384;28;20480;-86
2021/10/21 08:08:04;;;;;;;4.43;1.23;;;18.60;90.40;;;;;;5050386;28;20029;-85
2021/10/21 08:10:31;;;;;;;3.45;1.00;;;18.60;90.40;;;;;;5050253;28;20029;-87
2021/10/21 08:12:57;;;;;;;6.85;1.08;;;18.60;90.40;;;;;;5050511;28;20028;-85
2021/10/21 08:15:23;;;;;;;4.90;1.25;;;18.50;90.30;;;;;;5050121;28;20029;-85
2021/10/21 08:17:50;;;;;;;4.22;1.08;;;18.50;90.30;;;;;;5050495;28;20025;-85
2021/10/21 08:20:16;;;;;;;5.32;1.00;;;18.50;90.30;;;;;;5050762;28;20566;-88
2021/10/21 08:22:43;;;;;;;5.32;1.35;;;18.50;90.20;;;;;;5050162;28;20039;-86
2021/10/21 08:25:11;;;;;;;5.68;1.13;;;18.40;90.20;;;;;;5050363;28;20093;-88
2021/10/21 08:27:38;;;;;;;5.10;1.00;;;18.50;90.20;;;;;;5049933;28;20028;-86
2021/10/21 08:30:04;;;;;;;4.93;1.08;;;18.50;90.20;;;;;;5050236;28;20017;-87
2021/10/21 08:32:30;;;;;;;4.20;1.00;;;18.40;90.10;;;;;;5049930;28;20108;-87
2021/10/21 08:34:57;;;;;;;3.83;0.93;;;18.40;90.00;;;;;;5050148;28;20104;-89
2021/10/21 08:37:23;;;;;;;4.78;1.33;;;18.40;90.00;;;;;;5049856;28;20029;-87
2021/10/21 08:39:48;;;;;;;6.50;1.33;;;18.40;90.00;;;;;;5050304;28;20082;-81
2021/10/21 08:42:16;;;;;;;5.45;1.33;;;18.40;90.00;;;;;;5050217;28;20104;-90
2021/10/21 08:44:42;;;;;;;4.53;1.05;;;18.40;90.00;;;;;;5049784;28;20073;-87
2021/10/21 08:47:09;;;;;;;7.45;1.50;;;18.40;90.00;;;;;;5049941;28;20025;-86
2021/10/21 08:49:39;;;;;;;3.13;1.35;;;18.40;90.00;;;;;;5049445;28;20036;-86
2021/10/21 08:52:06;;;;;;;4.10;1.05;;;18.30;90.00;;;;;;5049889;28;20045;-84
2021/10/21 08:54:32;;;;;;;4.20;1.00;;;18.40;90.00;;;;;;5049584;28;20040;-85
2021/10/21 08:56:59;;;;;;;5.10;1.00;;;18.30;89.80;;;;;;5049843;28;20088;-84
2021/10/21 08:59:25;;;;;;;3.15;0.98;;;18.30;89.90;;;;;;5048349;28;20063;-88
2021/10/21 09:02:01;;;;;;;6.00;1.17;;;18.30;89.90;;;;;;5049760;28;20053;-90
2021/10/21 09:09:43;;;;;;;4.30;1.30;;;18.30;89.80;;;;;;5049583;28;20022;-89
2021/10/21 09:12:12;;;;;;;5.63;0.98;;;18.30;89.80;;;;;;5048294;28;20119;-90
2021/10/21 09:14:46;;;;;;;3.47;1.27;;;18.30;89.70;;;;;;5049413;28;20029;-90
2021/10/21 09:17:13;;;;;;;5.60;1.10;;;18.30;89.70;;;;;;5047942;28;20036;-90
2021/10/21 09:19:40;;;;;;;3.95;1.08;;;18.30;89.70;;;;;;5048121;28;20032;-90
2021/10/21 09:22:21;;;;;;;5.28;0.98;;;18.20;89.60;;;;;;5049405;28;20021;-89
2021/10/21 09:24:47;;;;;;;6.68;1.23;;;18.20;89.60;;;;;;5048390;28;20042;-85
2021/10/21 09:27:15;;;;;;;4.95;1.02;;;18.20;89.50;;;;;;5049308;28;20107;-89
2021/10/21 09:29:42;;;;;;;4.07;1.40;;;18.20;89.50;;;;;;5049101;28;20086;-89
2021/10/21 09:32:17;;;;;;;5.43;1.05;;;18.20;89.50;;;;;;5049197;28;20062;-86
2021/10/21 09:34:53;;;;;;;5.35;1.50;;;18.20;89.50;;;;;;5047820;28;20433;-88
2021/10/21 09:37:25;;;;;;;5.32;1.25;;;18.20;89.50;;;;;;5048956;28;20388;-84
2021/10/21 09:40:03;;;;;;;5.38;1.33;;;18.20;89.40;;;;;;5049247;28;20108;-88
2021/10/21 09:42:32;;;;;;;5.43;1.25;;;18.20;89.50;;;;;;5048796;28;20051;-87
2021/10/21 09:45:35;;;;;;;5.38;0.95;;;18.20;89.40;;;;;;5048911;28;20037;-88
2021/10/21 09:48:02;;;;;;;5.75;1.10;;;18.10;89.40;;;;;;5027588;28;20037;-89
2021/10/21 09:50:39;;;;;;;4.43;1.40;;;18.20;89.50;;;;;;5048770;28;20017;-90
2021/10/21 09:53:17;;;;;;;5.38;0.98;;;18.20;89.50;;;;;;5048678;28;20067;-88
2021/10/21 09:56:13;;;;;;;4.40;1.08;;;18.20;89.50;;;;;;5048562;28;20048;-89
2021/10/21 09:58:40;;;;;;;4.07;1.10;;;18.10;89.40;;;;;;5039778;28;20870;-88
2021/10/21 10:01:11;;;;;;;4.68;1.08;;;18.10;89.50;;;;;;5048091;28;20022;-90
2021/10/21 10:03:39;;;;;;;3.83;1.13;;;18.10;89.50;;;;;;5048502;28;20025;-89
2021/10/21 10:06:06;;;;;;;2.78;1.00;;;18.10;89.40;;;;;;5048780;28;20025;-90
2021/10/21 10:08:32;;;;;;;3.60;0.95;;;18.10;89.40;;;;;;5048519;28;20025;-89
2021/10/21 10:11:08;;;;;;;5.28;1.05;;;18.10;89.40;;;;;;5048626;28;20078;-90
2021/10/21 10:13:34;;;;;;;;;;;18.10;89.40;;;;;;5048829;28;20029;-89
2021/10/21 10:16:00;;;;;;;6.20;1.30;;;18.10;89.50;;;;;;5048699;28;19931;-88
2021/10/21 10:18:31;;;;;;;3.97;0.88;;;18.10;89.50;;;;;;5048287;28;20043;-91
2021/10/21 10:21:08;;;;;;;4.90;1.10;;;18.10;89.50;;;;;;5048548;28;20021;-88
2021/10/21 10:23:38;;;;;;;3.17;0.90;;;18.00;89.40;;;;;;5048284;28;20029;-90
2021/10/21 10:26:03;;;;;;;3.28;1.00;;;18.00;89.40;;;;;;5048528;28;20036;-89
2021/10/21 10:28:55;;;;;;;3.60;1.10;;;18.00;89.50;;;;;;5046977;28;20025;-90
2021/10/21 10:31:59;;;;;;;5.68;1.25;;;18.00;89.50;;;;;;5046960;28;20096;-88
2021/10/21 10:34:36;;;;;;;4.40;1.33;;;18.00;89.60;;;;;;5006514;28;20113;-89
2021/10/21 10:37:31;;;;;;;3.55;1.45;;;18.00;89.60;;;;;;5043379;28;20049;-90
2021/10/21 10:39:59;;;;;;;2.38;0.90;;;18.00;89.70;;;;;;5011639;28;20044;-90
2021/10/21 10:42:37;;;;;;;3.53;0.85;;;18.00;89.70;;;;;;5048163;28;20063;-88
2021/10/21 10:45:10;;;;;;;4.70;0.93;;;18.00;89.70;;;;;;5048098;28;20029;-86
2021/10/21 10:47:45;;;;;;;3.03;1.27;;;18.00;89.80;;;;;;5047947;28;20024;-89
2021/10/21 10:50:26;;;;;;;3.00;1.20;;;18.00;89.80;;;;;;5048249;28;20025;-90
2021/10/21 10:53:05;;;;;;;4.82;1.77;;;18.00;89.90;;;;;;5048202;28;20014;-89
2021/10/21 10:55:39;;;;;;;2.95;0.77;;;18.00;90.00;;;;;;5047948;28;20018;-90
2021/10/21 10:58:14;;;;;;;4.20;1.20;;;18.00;90.00;;;;;;5048100;28;20036;-88
2021/10/21 11:00:45;;;;;;;;;;;18.00;90.00;;;;;;5048295;28;20022;-89
2021/10/21 11:03:12;;;;;;;3.83;0.93;;;18.00;90.00;;;;;;5048145;28;19904;-90
2021/10/21 11:05:44;;;;;;;5.05;0.98;;;18.00;90.00;;;;;;5047847;28;20045;-90
2021/10/21 11:08:15;;;;;;;5.18;1.05;;;17.90;89.90;;;;;;5048015;28;20028;-89
2021/10/21 11:10:46;;;;;;;3.90;0.90;;;17.90;89.90;;;;;;5047585;28;20026;-87
2021/10/21 11:13:19;;;;;;;4.72;1.40;;;18.00;90.00;;;;;;5049566;28;20021;-86
2021/10/21 11:15:49;;;;;;;6.63;0.98;;;18.00;90.00;;;;;;5051646;28;20059;-90
2021/10/21 11:18:41;;;;;;;3.50;0.65;;;18.00;90.00;;;;;;5051732;28;20361;-87
2021/10/21 11:21:07;;;;;;;3.92;0.90;;;18.00;90.00;;;;;;5051324;28;20032;-86
2021/10/21 11:23:32;;;;;;;4.07;0.82;;;17.90;90.30;;;;;;5050987;28;20392;-88
2021/10/21 11:26:02;;;;;;;2.60;0.80;;;17.90;90.00;;;;;;5049962;28;20101;-88
2021/10/21 11:28:34;;;;;;;3.67;0.90;;;17.90;90.00;;;;;;5049660;28;20029;-88
2021/10/21 11:31:01;;;;;;;2.03;0.70;;;17.90;90.00;;;;;;5051082;28;20029;-87
2021/10/21 11:33:26;;;;;;;3.55;0.85;;;17.90;90.00;;;;;;5050937;28;20053;-88
2021/10/21 11:35:53;;;;;;;3.05;0.80;;;17.90;90.00;;;;;;5051066;28;20065;-89
2021/10/21 11:38:20;;;;;;;3.60;0.70;;;17.90;90.00;;;;;;5049834;28;20029;-81
2021/10/21 11:40:52;;;;;;;4.13;0.90;;;17.90;90.00;;;;;;5051313;28;20484;-86
2021/10/21 11:43:25;;;;;;;3.30;0.93;;;17.90;90.00;;;;;;5051282;28;20437;-88
2021/10/21 11:45:57;;;;;;;3.72;1.00;;;17.90;90.00;;;;;;5050785;28;20048;-87
2021/10/21 11:48:32;;;;;;;3.30;0.93;;;17.90;90.00;;;;;;5050547;28;20106;-89
2021/10/21 11:51:01;;;;;;;1.30;0.60;;;17.90;90.00;;;;;;5049547;28;20489;-86
2021/10/21 11:53:27;;;;;;;3.85;0.70;;;17.90;90.00;;;;;;5050637;28;20021;-86
2021/10/21 11:55:55;;;;;;;3.10;1.10;;;17.90;89.90;;;;;;5050761;28;20032;-84
2021/10/21 11:58:34;;;;;;;4.22;0.90;;;17.90;90.00;;;;;;5050481;28;20025;-88
2021/10/21 12:01:03;;;;;;;3.38;1.27;;;17.90;90.20;;;;;;5050715;28;20017;-87
2021/10/21 12:03:35;;;;;;;2.65;1.00;;;17.90;89.90;;;;;;5050310;28;20021;-87
2021/10/21 12:06:02;;;;;;;3.10;0.73;;;17.90;89.90;;;;;;5050805;28;20017;-89
2021/10/21 12:08:27;;;;;;;3.88;0.80;;;17.90;89.80;;;;;;5049091;28;20028;-89
2021/10/21 12:10:59;;;;;;;3.00;0.80;;;17.90;89.90;;;;;;5050583;28;20518;-88
2021/10/21 12:13:32;;;;;;;3.20;0.55;;;17.90;89.90;;;;;;5050276;28;20492;-87
2021/10/21 12:16:00;;;;;;;4.60;1.15;;;17.90;89.80;;;;;;5050359;28;20067;-89
2021/10/21 12:18:27;;;;;;;2.83;0.60;;;17.90;89.90;;;;;;5050255;28;20025;-88
2021/10/21 12:20:57;;;;;;;2.75;0.57;;;17.90;89.80;;;;;;5050404;28;20095;-89
2021/10/21 12:23:31;;;;;;;1.95;0.52;;;17.90;89.80;;;;;;5050218;28;20059;-88
2021/10/21 12:26:02;;;;;;;1.95;0.73;;;17.90;89.80;;;;;;5049620;28;20503;-83
2021/10/21 12:28:48;;;;;;;2.95;0.70;;;17.90;89.70;;;;;;5049957;28;20021;-86
2021/10/21 12:31:20;;;;;;;3.13;0.90;;;17.90;89.70;;;;;;5049341;28;20399;-88
2021/10/21 12:33:56;;;;;;;2.30;0.80;;;17.90;89.70;;;;;;5050538;28;20059;-88
2021/10/21 12:36:23;;;;;;;;;;;17.90;89.60;;;;;;5050397;28;20029;-86
2021/10/21 12:38:53;;;;;;;3.00;0.63;;;17.90;89.70;;;;;;5050185;28;19911;-82
2021/10/21 12:41:20;;;;;;;1.80;0.70;;;17.90;89.50;;;;;;5050406;28;20036;-83
2021/10/21 12:44:00;;;;;;;2.97;0.70;;;17.90;89.50;;;;;;5050363;28;20392;-86
2021/10/21 12:46:30;;;;;;;3.85;0.80;;;17.90;89.50;;;;;;5048218;28;20389;-89
2021/10/21 12:49:10;;;;;;;2.38;0.82;;;17.90;89.50;;;;;;5050083;28;20056;-88
2021/10/21 12:51:36;;;;;;;2.58;0.70;;;17.90;89.40;;;;;;5049738;28;20104;-89
2021/10/21 12:54:02;;;;;;;3.28;0.95;;;17.90;89.40;;;;;;5049965;28;20014;-86
2021/10/21 12:56:28;;;;;;;4.20;0.68;;;17.90;89.40;;;;;;5048273;28;20515;-88